Terminal Aerodrome Forecast
Issued by NWS Newport/Morehead City, NC

Home | Current Version | Previous Version | Graphics & Text | Print | Product List | Glossary On
Versions: 1 2 3 4 5 6 7 8 9 10 11 12 13 14 15
000
FTUS42 KMHX 211700
TAFEWN
TAF
KEWN 211731Z 2118/2218 04007KT P6SM OVC060
     FM220300 04008KT P6SM VCSH OVC020
     FM220800 04010KT P6SM -RA OVC008
     FM221100 04010KT 4SM -RA OVC004=

USA.gov is the U.S. government's official web portal to all federal, state and local government web resources and services.